Time;durP1;ratioP1;P1;durP2;ratioP2;P2;SDS_P1;SDS_P2;PMS_P1;PMS_P2;Temp;Humidity;BMP_temperature;BMP_pressure;BME280_temperature;BME280_humidity;BME280_pressure;Samples;Min_cycle;Max_cycle;Signal;HPM_P1;HPM_P2
2022/01/23 00:00:32;;;;;;;28.00;25.77;;;0.60;74.50;;;;;;5051988;28;20025;-77
2022/01/23 00:03:05;;;;;;;27.48;25.15;;;0.70;74.30;;;;;;5054868;28;20099;-78
2022/01/23 00:05:34;;;;;;;26.52;24.85;;;0.50;74.00;;;;;;5057059;28;20061;-77
2022/01/23 00:08:02;;;;;;;26.75;24.50;;;0.40;74.00;;;;;;5056997;28;20053;-77
2022/01/23 00:10:28;;;;;;;50.47;40.33;;;0.30;74.00;;;;;;5055890;28;20430;-77
2022/01/23 00:13:06;;;;;;;28.58;26.83;;;0.20;74.30;;;;;;5056945;28;20032;-76
2022/01/23 00:18:17;;;;;;;29.60;26.92;;;0.10;74.10;;;;;;5056707;28;20028;-76
2022/01/23 00:20:43;;;;;;;31.95;29.05;;;0.00;73.80;;;;;;5055620;28;20021;-78
2022/01/23 00:23:26;;;;;;;28.88;26.65;;;-0.10;74.00;;;;;;5056566;28;20033;-76
2022/01/23 00:31:19;;;;;;;30.38;27.63;;;-0.10;74.30;;;;;;5056580;28;20044;-77
2022/01/23 00:33:45;;;;;;;38.92;35.70;;;-0.20;74.10;;;;;;5056308;28;20029;-78
2022/01/23 00:36:12;;;;;;;30.48;27.83;;;-0.40;74.20;;;;;;5056412;28;20053;-79
2022/01/23 00:38:38;;;;;;;32.75;29.60;;;-0.30;74.50;;;;;;5056765;28;20025;-77
2022/01/23 00:41:04;;;;;;;29.92;27.40;;;-0.30;74.60;;;;;;5057329;28;20025;-76
2022/01/23 00:43:31;;;;;;;33.75;28.55;;;-0.40;74.50;;;;;;5055331;28;20529;-78
2022/01/23 00:51:23;;;;;;;34.40;31.67;;;-0.20;74.40;;;;;;5056330;28;20032;-78
2022/01/23 00:53:49;;;;;;;27.42;25.52;;;-0.20;74.40;;;;;;5056196;28;20499;-77
2022/01/23 00:56:15;;;;;;;33.40;30.50;;;-0.20;74.50;;;;;;5056219;28;20036;-77
2022/01/23 00:58:40;;;;;;;33.33;30.33;;;-0.20;74.20;;;;;;5054935;28;20025;-78
2022/01/23 01:01:06;;;;;;;36.45;29.92;;;-0.20;74.10;;;;;;5054512;28;20479;-76
2022/01/23 01:03:33;;;;;;;40.85;36.95;;;-0.20;74.30;;;;;;5055971;28;20119;-78
2022/01/23 01:05:59;;;;;;;38.80;35.08;;;-0.10;74.30;;;;;;5054658;28;20027;-78
2022/01/23 01:08:25;;;;;;;49.95;45.15;;;-0.20;74.20;;;;;;5054679;28;20391;-77
2022/01/23 01:11:10;;;;;;;43.67;36.80;;;-0.30;74.20;;;;;;5054534;28;20025;-78
2022/01/23 01:36:01;;;;;;;25.58;23.77;;;0.30;74.20;;;;;;5049810;28;20076;-79
2022/01/23 01:38:02;;;;;;;25.60;24.13;;;0.50;74.30;;;;;;5054249;28;20369;-77
2022/01/23 01:40:28;;;;;;;30.30;27.83;;;0.50;74.00;;;;;;5054868;28;20103;-80
2022/01/23 01:42:54;;;;;;;25.33;23.73;;;0.50;73.90;;;;;;5054167;28;20552;-75
2022/01/23 01:45:26;;;;;;;28.00;25.45;;;0.60;73.80;;;;;;5058048;28;20029;-76
2022/01/23 01:47:54;;;;;;;23.58;22.17;;;0.60;73.80;;;;;;5055387;28;20025;-76
2022/01/23 01:50:20;;;;;;;23.98;22.45;;;0.50;73.80;;;;;;5051308;28;20459;-75
2022/01/23 01:52:46;;;;;;;24.45;22.85;;;0.50;73.90;;;;;;5042536;28;20384;-75
2022/01/23 01:55:18;;;;;;;25.48;23.98;;;0.60;73.90;;;;;;5033639;28;20033;-75
2022/01/23 01:57:54;;;;;;;23.17;21.23;;;0.60;73.80;;;;;;5034976;28;20037;-75
2022/01/23 02:03:23;;;;;;;21.95;20.75;;;0.70;73.60;;;;;;5054068;28;20055;-74
2022/01/23 02:08:33;;;;;;;22.48;20.90;;;0.80;73.40;;;;;;5054830;28;20040;-73
2022/01/23 02:11:10;;;;;;;36.92;31.63;;;0.80;73.40;;;;;;5053629;28;20033;-73
2022/01/23 02:51:37;;;;;;;26.45;24.33;;;0.60;73.00;;;;;;5054039;28;20071;-75
2022/01/23 02:56:48;;;;;;;30.08;27.85;;;0.60;73.30;;;;;;5053978;28;20025;-74
2022/01/23 02:59:22;;;;;;;22.48;20.52;;;0.60;73.20;;;;;;5053961;28;20021;-74
2022/01/23 03:04:37;;;;;;;24.98;23.50;;;0.70;73.40;;;;;;5033692;28;20099;-75
2022/01/23 03:09:59;;;;;;;24.30;22.23;;;0.80;73.30;;;;;;5053809;28;20027;-75
2022/01/23 03:33:26;;;;;;;27.70;25.70;;;0.80;73.10;;;;;;5053728;28;20102;-76
2022/01/23 03:35:51;;;;;;;30.55;27.80;;;0.90;73.10;;;;;;5053040;28;20456;-75
2022/01/23 03:38:17;;;;;;;26.73;24.58;;;0.90;73.10;;;;;;5056648;28;20379;-73
2022/01/23 03:40:43;;;;;;;26.38;24.60;;;0.90;73.10;;;;;;5037898;28;20472;-74
2022/01/23 03:43:11;;;;;;;24.17;22.67;;;0.90;73.00;;;;;;5037454;28;20456;-73
2022/01/23 03:50:39;;;;;;;25.77;23.52;;;0.90;72.80;;;;;;5037434;28;20022;-74
2022/01/23 03:53:05;;;;;;;25.20;23.38;;;0.90;72.80;;;;;;5041107;28;20068;-73
2022/01/23 03:55:31;;;;;;;27.23;25.10;;;0.90;72.80;;;;;;5057331;28;20456;-74
2022/01/23 03:57:57;;;;;;;28.60;25.98;;;0.90;72.80;;;;;;5056394;28;20490;-74
2022/01/23 04:00:23;;;;;;;30.27;27.75;;;0.90;72.80;;;;;;5057462;28;20032;-74
2022/01/23 04:02:49;;;;;;;26.08;24.02;;;0.80;72.80;;;;;;5056814;28;20103;-73
2022/01/23 04:05:15;;;;;;;28.55;26.02;;;0.90;72.80;;;;;;5039305;28;20041;-73
2022/01/23 04:07:42;;;;;;;25.65;23.58;;;0.80;72.70;;;;;;5039493;28;20041;-73
2022/01/23 04:10:09;;;;;;;23.70;21.95;;;0.80;73.30;;;;;;5052964;28;20452;-75
2022/01/23 05:01:00;;;;;;;28.35;26.38;;;0.60;72.70;;;;;;5036342;28;20147;-75
2022/01/23 05:06:00;;;;;;;27.90;26.10;;;0.60;72.70;;;;;;5035996;28;20051;-74
2022/01/23 05:08:29;;;;;;;30.75;28.85;;;0.60;72.60;;;;;;5035029;28;20021;-75
2022/01/23 05:10:58;;;;;;;25.40;23.52;;;0.60;72.50;;;;;;5035992;28;20056;-76
2022/01/23 05:13:26;;;;;;;26.02;24.40;;;0.60;72.50;;;;;;5035719;28;20029;-75
2022/01/23 05:15:52;;;;;;;27.05;24.98;;;0.60;72.60;;;;;;5035952;28;20021;-76
2022/01/23 05:18:17;;;;;;;28.33;26.33;;;0.60;72.60;;;;;;5035752;28;20377;-76
2022/01/23 05:20:45;;;;;;;29.85;26.95;;;0.60;72.70;;;;;;5035609;28;20068;-76
2022/01/23 05:23:11;;;;;;;30.88;28.15;;;0.60;72.60;;;;;;5036442;28;20495;-76
2022/01/23 05:25:38;;;;;;;33.88;30.50;;;0.60;72.50;;;;;;5054281;28;20029;-76
2022/01/23 05:28:03;;;;;;;39.42;35.35;;;0.60;72.40;;;;;;5054080;28;20029;-72
2022/01/23 05:30:29;;;;;;;28.02;25.67;;;0.60;72.40;;;;;;5054007;28;20163;-71
2022/01/23 05:32:58;;;;;;;25.00;23.42;;;0.60;72.40;;;;;;5055295;28;20025;-75
2022/01/23 05:35:25;;;;;;;32.10;29.48;;;0.60;72.50;;;;;;5055487;28;20490;-75
2022/01/23 05:37:51;;;;;;;31.20;27.75;;;0.60;72.60;;;;;;5055200;28;20032;-73
2022/01/23 05:40:19;;;;;;;38.83;32.13;;;0.60;72.50;;;;;;5053627;28;20414;-70
2022/01/23 05:42:45;;;;;;;51.58;32.85;;;0.60;72.50;;;;;;5054261;28;20055;-80
2022/01/23 05:45:11;;;;;;;32.63;29.98;;;0.60;72.50;;;;;;5055118;28;20502;-70
2022/01/23 05:47:36;;;;;;;30.20;27.33;;;0.60;72.50;;;;;;5054785;28;20071;-71
2022/01/23 05:50:05;;;;;;;29.48;26.55;;;0.60;72.50;;;;;;5053608;28;20551;-70
2022/01/23 05:52:31;;;;;;;26.92;25.08;;;0.60;72.50;;;;;;5054673;28;20029;-70
2022/01/23 05:54:57;;;;;;;26.55;24.85;;;0.60;72.60;;;;;;5053396;28;20082;-71
2022/01/23 05:57:23;;;;;;;26.88;24.95;;;0.60;72.70;;;;;;5053532;28;20029;-73
2022/01/23 05:59:49;;;;;;;29.33;27.35;;;0.60;72.70;;;;;;5054804;28;20087;-71
2022/01/23 06:02:15;;;;;;;29.20;26.77;;;0.60;72.70;;;;;;5053302;28;20049;-70
2022/01/23 06:04:40;;;;;;;31.35;28.95;;;0.50;72.60;;;;;;5054661;28;20490;-72
2022/01/23 06:07:06;;;;;;;26.48;24.52;;;0.60;72.70;;;;;;5054898;28;20097;-72
2022/01/23 06:09:32;;;;;;;28.08;26.38;;;0.60;72.70;;;;;;5053433;28;20086;-77
2022/01/23 06:11:57;;;;;;;25.52;23.80;;;0.60;72.70;;;;;;5054123;28;20464;-80
2022/01/23 06:14:25;;;;;;;27.23;25.38;;;0.60;72.70;;;;;;5040171;28;20025;-77
2022/01/23 06:16:51;;;;;;;25.27;23.25;;;0.60;72.70;;;;;;5041911;28;20108;-75
2022/01/23 06:19:16;;;;;;;26.02;24.33;;;0.60;72.70;;;;;;5041019;28;20590;-76
2022/01/23 06:21:42;;;;;;;23.83;22.27;;;0.60;72.70;;;;;;5042829;28;20025;-74
2022/01/23 06:24:22;;;;;;;28.80;26.55;;;0.70;72.70;;;;;;5042647;28;20487;-78
2022/01/23 06:26:52;;;;;;;29.17;26.33;;;0.70;72.80;;;;;;5041192;28;20025;-74
2022/01/23 06:29:19;;;;;;;27.25;25.55;;;0.70;72.70;;;;;;5040560;28;20036;-79
2022/01/23 06:31:46;;;;;;;27.27;25.58;;;0.70;72.70;;;;;;5045984;28;20021;-67
2022/01/23 06:34:13;;;;;;;24.65;22.92;;;0.80;72.60;;;;;;5049072;28;20438;-67
2022/01/23 06:36:39;;;;;;;24.13;22.50;;;0.80;72.50;;;;;;5039650;28;20037;-66
2022/01/23 06:39:06;;;;;;;23.27;21.75;;;0.80;72.40;;;;;;5036230;28;20033;-67
2022/01/23 06:41:33;;;;;;;25.95;24.13;;;0.80;72.40;;;;;;5035413;28;20026;-68
2022/01/23 06:43:59;;;;;;;29.50;26.92;;;0.80;72.40;;;;;;5034012;28;20040;-66
2022/01/23 06:46:25;;;;;;;37.95;32.92;;;0.80;72.40;;;;;;5034099;28;20057;-66
2022/01/23 06:48:50;;;;;;;38.92;35.08;;;0.80;72.40;;;;;;5032384;28;20060;-67
2022/01/23 06:51:16;;;;;;;30.77;28.27;;;0.80;72.50;;;;;;5042242;28;20501;-66
2022/01/23 06:53:42;;;;;;;49.33;44.45;;;0.90;72.50;;;;;;5047956;28;20028;-66
2022/01/23 06:56:07;;;;;;;32.92;30.27;;;0.80;72.40;;;;;;5053802;28;20459;-66
2022/01/23 06:58:33;;;;;;;35.38;31.98;;;0.90;72.50;;;;;;5052480;28;20357;-66
2022/01/23 07:00:59;;;;;;;31.35;29.02;;;0.90;72.50;;;;;;5052285;28;20150;-66
2022/01/23 07:03:24;;;;;;;27.30;25.73;;;1.00;72.50;;;;;;5052289;28;20222;-66
2022/01/23 07:05:50;;;;;;;24.92;22.83;;;1.00;72.40;;;;;;5053505;28;20383;-67
2022/01/23 07:08:16;;;;;;;24.45;22.67;;;1.10;72.40;;;;;;5053490;28;20053;-67
2022/01/23 07:10:41;;;;;;;30.08;27.83;;;1.10;72.30;;;;;;5053082;28;20025;-66
2022/01/23 07:13:07;;;;;;;37.53;34.17;;;1.10;72.40;;;;;;5053484;28;20052;-67
2022/01/23 07:15:33;;;;;;;39.13;35.67;;;1.10;72.90;;;;;;5051948;28;20025;-67
2022/01/23 07:17:58;;;;;;;46.80;42.08;;;1.20;72.30;;;;;;5053335;28;20029;-67
2022/01/23 07:20:24;;;;;;;38.55;35.40;;;1.20;72.30;;;;;;5053451;28;20029;-65
2022/01/23 07:22:50;;;;;;;33.15;30.15;;;1.20;72.20;;;;;;5048944;28;20025;-66
2022/01/23 07:25:15;;;;;;;32.67;29.50;;;1.30;72.20;;;;;;5053471;28;20076;-66
2022/01/23 07:27:49;;;;;;;28.10;25.63;;;1.30;72.20;;;;;;5052020;28;20032;-66
2022/01/23 07:30:32;;;;;;;30.60;28.02;;;1.40;72.30;;;;;;5037470;28;20033;-66
2022/01/23 07:32:58;;;;;;;27.88;25.02;;;1.40;72.10;;;;;;5033075;28;20026;-65
2022/01/23 07:35:24;;;;;;;27.55;25.65;;;1.50;72.00;;;;;;5033414;28;20030;-67
2022/01/23 07:37:49;;;;;;;28.88;26.45;;;1.50;71.80;;;;;;5032105;28;20033;-66
2022/01/23 07:40:15;;;;;;;24.25;22.45;;;1.50;71.90;;;;;;5032061;28;20430;-66
2022/01/23 07:42:41;;;;;;;25.50;23.50;;;1.50;71.70;;;;;;5049478;28;20452;-67
2022/01/23 07:45:07;;;;;;;30.05;27.90;;;1.50;71.60;;;;;;5053220;28;20124;-66
2022/01/23 07:47:33;;;;;;;26.48;24.05;;;1.50;71.40;;;;;;5052810;28;20032;-67
2022/01/23 07:50:01;;;;;;;32.88;29.33;;;1.40;71.20;;;;;;5049917;28;20029;-66
2022/01/23 07:52:30;;;;;;;35.17;31.77;;;1.40;71.20;;;;;;5033280;28;20108;-66
2022/01/23 07:54:56;;;;;;;28.25;25.63;;;1.40;71.00;;;;;;5033051;28;20033;-68
2022/01/23 07:57:22;;;;;;;28.02;25.55;;;1.30;70.90;;;;;;5033336;28;20049;-68
2022/01/23 07:59:48;;;;;;;31.75;29.33;;;1.30;70.90;;;;;;5032952;28;20059;-67
2022/01/23 08:02:14;;;;;;;39.60;34.38;;;1.30;71.00;;;;;;5038081;28;20053;-67
2022/01/23 08:04:40;;;;;;;145.73;93.22;;;1.20;71.00;;;;;;5032735;28;20038;-69
2022/01/23 08:07:50;;;;;;;54.55;48.88;;;1.20;71.00;;;;;;5031677;28;20017;-68
2022/01/23 08:09:51;;;;;;;38.55;35.22;;;1.20;71.00;;;;;;5032294;28;20373;-68
2022/01/23 08:12:17;;;;;;;25.23;23.27;;;1.10;70.80;;;;;;5032887;28;20045;-69
2022/01/23 08:14:43;;;;;;;32.30;29.45;;;1.10;70.90;;;;;;5031432;28;20029;-67
2022/01/23 08:17:08;;;;;;;40.58;37.55;;;1.10;70.90;;;;;;5033297;28;20079;-66
2022/01/23 08:19:34;;;;;;;30.38;27.73;;;1.00;70.80;;;;;;5038039;28;20056;-68
2022/01/23 08:22:00;;;;;;;28.85;26.48;;;1.00;70.80;;;;;;5052934;28;20036;-66
2022/01/23 08:24:25;;;;;;;28.80;26.73;;;1.00;70.90;;;;;;5056243;28;20048;-67
2022/01/23 08:26:51;;;;;;;26.58;24.38;;;1.00;71.00;;;;;;5056359;28;20025;-67
2022/01/23 08:29:23;;;;;;;28.48;26.38;;;1.00;71.10;;;;;;5056106;28;20486;-69
2022/01/23 08:31:48;;;;;;;26.63;24.25;;;1.10;71.30;;;;;;5055153;28;20032;-68
2022/01/23 08:34:16;;;;;;;31.05;28.05;;;1.20;71.50;;;;;;5054930;28;20480;-67
2022/01/23 08:36:41;;;;;;;31.05;28.52;;;1.40;71.70;;;;;;5056385;28;20025;-68
2022/01/23 08:39:07;;;;;;;29.35;26.85;;;1.50;71.70;;;;;;5053802;28;20071;-67
2022/01/23 08:41:50;;;;;;;28.58;26.23;;;1.50;71.70;;;;;;5056233;28;20032;-68
2022/01/23 08:44:26;;;;;;;26.02;24.10;;;1.60;71.70;;;;;;5054842;28;20124;-67
2022/01/23 08:46:53;;;;;;;26.98;25.05;;;1.80;71.50;;;;;;5056155;28;20500;-68
2022/01/23 08:49:20;;;;;;;31.38;28.55;;;1.80;71.50;;;;;;5054563;28;20025;-66
2022/01/23 08:51:48;;;;;;;26.48;24.48;;;1.90;71.50;;;;;;5056032;28;20029;-68
2022/01/23 08:54:14;;;;;;;27.80;25.67;;;2.00;71.40;;;;;;5055595;28;20029;-68
2022/01/23 08:56:40;;;;;;;27.95;25.75;;;2.10;71.20;;;;;;5051607;28;20025;-68
2022/01/23 08:59:06;;;;;;;27.33;24.75;;;2.20;71.30;;;;;;5044232;28;20030;-67
2022/01/23 09:01:33;;;;;;;29.30;26.80;;;2.30;71.30;;;;;;5044544;28;20052;-68
2022/01/23 09:03:59;;;;;;;30.80;28.20;;;2.40;71.20;;;;;;5051336;28;20042;-68
2022/01/23 09:06:25;;;;;;;32.67;29.45;;;2.60;71.20;;;;;;5054696;28;20379;-70
2022/01/23 09:08:52;;;;;;;27.27;25.10;;;2.70;71.10;;;;;;5041711;28;20025;-66
2022/01/23 09:11:38;;;;;;;35.60;32.05;;;2.80;70.90;;;;;;5036137;28;20452;-67
2022/01/23 09:16:30;;;;;;;23.52;21.77;;;3.10;70.70;;;;;;5042905;28;20048;-66
2022/01/23 09:18:56;;;;;;;24.85;22.52;;;3.10;70.50;;;;;;5039754;28;20064;-67
2022/01/23 09:21:22;;;;;;;32.25;28.98;;;3.20;70.60;;;;;;5054093;28;20063;-66
2022/01/23 09:23:47;;;;;;;26.92;24.42;;;3.30;70.60;;;;;;5054022;28;20095;-67
2022/01/23 09:26:16;;;;;;;24.98;22.95;;;3.50;70.50;;;;;;5042708;28;20025;-67
2022/01/23 09:28:44;;;;;;;22.50;20.70;;;3.60;70.30;;;;;;5042965;28;20053;-67
2022/01/23 09:31:12;;;;;;;24.67;22.38;;;3.60;70.10;;;;;;5043302;28;20021;-66
2022/01/23 09:33:38;;;;;;;24.58;22.55;;;3.70;70.00;;;;;;5042897;28;20495;-68
2022/01/23 09:36:04;;;;;;;21.13;19.42;;;3.80;69.80;;;;;;5043199;28;20045;-68
2022/01/23 09:38:30;;;;;;;23.92;21.73;;;3.80;69.50;;;;;;5044606;28;20412;-68
2022/01/23 09:40:59;;;;;;;25.48;23.65;;;3.80;69.30;;;;;;5040892;28;20025;-66
2022/01/23 09:43:27;;;;;;;24.38;22.45;;;3.80;69.10;;;;;;5040960;28;20108;-67
2022/01/23 09:45:54;;;;;;;24.65;22.67;;;3.90;68.90;;;;;;5041592;28;20017;-67
2022/01/23 09:48:21;;;;;;;23.48;21.85;;;3.80;68.80;;;;;;5036628;28;20033;-67
2022/01/23 09:50:49;;;;;;;22.10;20.42;;;3.80;68.60;;;;;;5048210;28;20025;-67
2022/01/23 09:53:16;;;;;;;23.33;21.48;;;3.90;68.50;;;;;;5037829;28;20025;-67
2022/01/23 09:55:46;;;;;;;24.33;22.25;;;3.90;68.40;;;;;;5036602;28;20021;-67
2022/01/23 09:58:16;;;;;;;23.38;21.65;;;3.90;68.40;;;;;;5049007;28;20021;-67
2022/01/23 10:00:42;;;;;;;25.60;23.38;;;4.00;68.30;;;;;;5046456;28;20029;-67
2022/01/23 10:03:08;;;;;;;26.17;23.77;;;3.90;68.00;;;;;;5046158;28;20044;-67
2022/01/23 10:05:34;;;;;;;24.92;22.83;;;3.90;68.10;;;;;;5040495;28;20041;-66
2022/01/23 10:08:00;;;;;;;25.33;23.40;;;3.90;68.00;;;;;;5042879;28;20041;-65
2022/01/23 10:10:31;;;;;;;24.73;22.23;;;3.90;67.90;;;;;;5044224;28;20379;-67
2022/01/23 10:12:59;;;;;;;23.00;21.25;;;3.90;67.90;;;;;;5043719;28;20021;-67
2022/01/23 10:15:27;;;;;;;24.13;22.13;;;3.80;67.90;;;;;;5043478;28;20017;-66
2022/01/23 10:17:54;;;;;;;23.83;21.98;;;3.90;67.90;;;;;;5036746;28;20047;-67
2022/01/23 10:20:21;;;;;;;22.55;20.75;;;4.00;67.90;;;;;;5032373;28;20030;-66
2022/01/23 10:22:50;;;;;;;26.15;24.23;;;4.10;67.90;;;;;;5043324;28;20348;-66
2022/01/23 10:25:17;;;;;;;25.63;23.48;;;4.30;68.00;;;;;;5039445;28;20036;-65
2022/01/23 10:28:00;;;;;;;25.77;23.48;;;4.40;67.80;;;;;;5044724;28;20039;-65
2022/01/23 10:30:28;;;;;;;23.60;21.52;;;4.40;67.50;;;;;;5039264;28;20049;-66
2022/01/23 10:33:16;;;;;;;26.33;24.30;;;4.50;67.40;;;;;;5036308;28;20021;-65
2022/01/23 10:36:01;;;;;;;24.42;22.55;;;4.40;67.10;;;;;;5052559;28;20120;-65
2022/01/23 10:38:41;;;;;;;23.65;21.75;;;4.30;66.90;;;;;;5053788;28;20105;-66
2022/01/23 10:42:11;;;;;;;26.80;24.55;;;4.30;66.80;;;;;;5053996;28;20032;-66
2022/01/23 10:49:49;;;;;;;23.58;21.58;;;4.30;66.80;;;;;;5042533;28;20396;-67
2022/01/23 10:52:28;;;;;;;23.50;21.42;;;4.40;66.90;;;;;;5041594;28;20078;-68
2022/01/23 10:54:54;;;;;;;25.65;23.38;;;4.40;66.80;;;;;;5041305;28;20033;-69
2022/01/23 10:57:20;;;;;;;23.13;21.55;;;4.50;66.70;;;;;;5042375;28;20037;-69
2022/01/23 10:59:52;;;;;;;22.55;20.63;;;4.60;66.60;;;;;;5043100;28;20017;-68
2022/01/23 11:02:21;;;;;;;21.20;19.50;;;4.60;66.20;;;;;;5041615;28;20163;-68
2022/01/23 11:04:53;;;;;;;23.52;21.80;;;4.60;66.00;;;;;;5040987;28;20045;-67
2022/01/23 11:07:20;;;;;;;23.55;21.63;;;4.60;65.90;;;;;;5042240;28;20037;-68
2022/01/23 11:09:47;;;;;;;27.17;24.92;;;4.50;65.80;;;;;;5038391;28;20087;-68
2022/01/23 11:12:44;;;;;;;28.60;26.27;;;4.50;65.70;;;;;;5041061;28;20775;-67
2022/01/23 11:18:09;;;;;;;24.90;23.08;;;4.50;65.70;;;;;;5032979;28;20036;-67
2022/01/23 11:20:47;;;;;;;26.95;24.60;;;4.50;65.80;;;;;;5032816;28;20057;-66
2022/01/23 11:23:22;;;;;;;25.02;22.92;;;4.60;66.50;;;;;;5035899;28;20044;-67
2022/01/23 11:25:57;;;;;;;25.05;22.70;;;4.60;65.70;;;;;;5043001;28;20104;-67
2022/01/23 11:28:31;;;;;;;23.05;21.15;;;4.50;65.40;;;;;;5043671;28;20029;-66
2022/01/23 11:30:58;;;;;;;26.77;24.83;;;4.40;65.70;;;;;;5053452;28;20115;-67
2022/01/23 11:33:24;;;;;;;25.17;22.92;;;4.40;65.10;;;;;;5045629;28;20029;-66
2022/01/23 11:35:50;;;;;;;23.35;21.58;;;4.30;64.90;;;;;;5041022;28;20550;-67
2022/01/23 11:38:22;;;;;;;24.33;22.45;;;4.20;64.80;;;;;;5040448;28;20033;-66
2022/01/23 11:55:32;;;;;;;25.92;24.05;;;3.80;64.80;;;;;;5041593;28;20032;-71
2022/01/23 11:57:58;;;;;;;26.45;24.15;;;3.70;65.00;;;;;;5044098;28;20436;-68
2022/01/23 12:00:27;;;;;;;27.30;25.13;;;3.60;65.00;;;;;;5045315;28;20103;-71
2022/01/23 12:03:11;;;;;;;26.83;24.63;;;3.60;65.10;;;;;;5045898;28;20045;-66
2022/01/23 12:05:39;;;;;;;25.70;23.05;;;3.60;65.10;;;;;;5045052;28;20084;-66
2022/01/23 12:08:32;;;;;;;29.17;26.65;;;3.50;65.10;;;;;;5043704;28;20029;-64
2022/01/23 12:18:52;;;;;;;25.90;23.83;;;3.50;65.10;;;;;;5045209;28;20018;-67
2022/01/23 12:21:28;;;;;;;24.42;22.40;;;3.40;65.10;;;;;;5044037;28;20495;-66
2022/01/23 12:24:01;;;;;;;24.33;22.42;;;3.30;65.10;;;;;;5037848;28;20037;-64
2022/01/23 12:26:27;;;;;;;30.90;27.65;;;3.30;65.30;;;;;;5051072;28;20112;-66
2022/01/23 12:28:53;;;;;;;26.08;23.83;;;3.20;65.30;;;;;;5042406;28;20187;-66
2022/01/23 12:31:26;;;;;;;27.33;24.83;;;3.20;65.40;;;;;;5041759;28;20025;-65
2022/01/23 12:34:01;;;;;;;28.00;25.85;;;3.20;65.40;;;;;;5035739;28;20021;-65
2022/01/23 12:36:35;;;;;;;30.75;28.15;;;3.10;65.30;;;;;;5041827;28;20214;-65
2022/01/23 12:39:06;;;;;;;29.02;26.70;;;3.00;65.20;;;;;;5047111;28;20025;-65
2022/01/23 12:41:37;;;;;;;31.35;28.90;;;3.00;65.40;;;;;;5045210;28;20128;-65
2022/01/23 12:44:29;;;;;;;29.13;26.45;;;2.90;65.30;;;;;;5045840;28;20021;-66
2022/01/23 12:47:01;;;;;;;27.15;24.98;;;2.80;65.50;;;;;;5046282;28;20030;-65
2022/01/23 12:49:34;;;;;;;25.90;23.95;;;2.80;65.50;;;;;;5044900;28;20021;-64
2022/01/23 12:52:09;;;;;;;34.40;31.85;;;2.80;65.60;;;;;;5043800;28;20108;-65
2022/01/23 12:54:47;;;;;;;30.88;27.65;;;2.70;65.60;;;;;;5043265;28;20033;-66
2022/01/23 12:57:16;;;;;;;30.17;27.50;;;2.80;65.70;;;;;;5042991;28;20021;-67
2022/01/23 12:59:49;;;;;;;30.67;28.02;;;2.70;65.70;;;;;;5040286;28;20033;-66
2022/01/23 13:02:17;;;;;;;30.23;27.52;;;2.70;65.70;;;;;;5043239;28;20198;-67
2022/01/23 13:04:46;;;;;;;30.23;27.40;;;2.70;65.80;;;;;;5045484;28;20100;-69
2022/01/23 13:10:23;;;;;;;30.90;28.25;;;2.70;65.90;;;;;;5043849;28;20017;-66
2022/01/23 13:18:05;;;;;;;29.50;26.42;;;2.70;65.90;;;;;;5045428;28;20407;-68
2022/01/23 13:31:57;;;;;;;31.65;29.00;;;2.60;65.70;;;;;;5043632;28;20029;-67
2022/01/23 13:34:36;;;;;;;30.52;28.13;;;2.60;65.90;;;;;;5041675;28;20026;-69
2022/01/23 13:37:06;;;;;;;27.67;25.15;;;2.50;65.80;;;;;;5045990;28;20037;-69
2022/01/23 13:39:46;;;;;;;31.15;28.55;;;2.50;65.90;;;;;;5038207;28;20183;-67
2022/01/23 13:59:39;;;;;;;29.10;26.67;;;2.10;66.10;;;;;;5049947;28;20079;-67
2022/01/23 14:02:32;;;;;;;;;;;2.10;66.00;;;;;;5044912;28;20037;-66
2022/01/23 14:05:22;;;;;;;27.95;25.20;;;2.00;66.10;;;;;;5036212;28;19928;-67
2022/01/23 14:08:01;;;;;;;28.38;25.73;;;1.80;66.00;;;;;;5036834;28;20025;-67
2022/01/23 14:10:39;;;;;;;33.78;30.95;;;1.70;66.10;;;;;;5044950;28;20033;-67
2022/01/23 14:13:08;;;;;;;32.35;28.92;;;1.60;66.40;;;;;;5042870;28;20479;-66
2022/01/23 14:15:35;;;;;;;31.08;28.77;;;1.60;66.50;;;;;;5042304;28;20029;-66
2022/01/23 14:18:11;;;;;;;33.03;29.95;;;1.50;66.60;;;;;;5043798;28;20025;-66
2022/01/23 14:20:53;;;;;;;31.73;28.45;;;1.40;66.70;;;;;;5043006;28;20021;-65
2022/01/23 14:23:22;;;;;;;32.75;29.88;;;1.30;66.80;;;;;;5041894;28;20032;-65
2022/01/23 14:25:58;;;;;;;30.02;27.45;;;1.30;66.80;;;;;;5041397;28;20129;-66
2022/01/23 14:28:28;;;;;;;33.28;30.52;;;1.30;66.90;;;;;;5042718;28;20394;-64
2022/01/23 14:30:58;;;;;;;31.45;28.35;;;1.20;66.90;;;;;;5041668;28;20044;-65
2022/01/23 14:33:25;;;;;;;30.05;27.38;;;1.20;66.90;;;;;;5043128;28;20080;-66
2022/01/23 14:35:52;;;;;;;31.63;28.58;;;1.30;67.00;;;;;;5043247;28;20024;-64
2022/01/23 14:38:23;;;;;;;30.95;28.30;;;1.20;66.90;;;;;;5040111;28;20036;-66
2022/01/23 14:40:58;;;;;;;35.38;32.28;;;1.20;67.00;;;;;;5042688;28;20051;-64
2022/01/23 14:43:31;;;;;;;33.90;30.55;;;1.10;67.10;;;;;;5042218;28;20033;-66
2022/01/23 14:45:58;;;;;;;34.97;32.22;;;1.10;67.20;;;;;;5041396;28;20026;-66
2022/01/23 14:48:24;;;;;;;32.05;29.45;;;1.10;67.20;;;;;;5040484;28;20030;-66
2022/01/23 14:50:54;;;;;;;29.67;26.80;;;1.10;67.10;;;;;;5043340;28;20037;-65
2022/01/23 14:53:24;;;;;;;33.85;30.67;;;1.10;67.10;;;;;;5040351;28;20061;-66
2022/01/23 14:55:56;;;;;;;33.67;30.20;;;1.10;67.20;;;;;;5042216;28;20033;-67
2022/01/23 14:58:22;;;;;;;35.30;31.98;;;1.00;67.30;;;;;;5044654;28;20118;-66
2022/01/23 15:00:52;;;;;;;32.75;30.30;;;1.00;67.30;;;;;;5051341;28;20108;-72
2022/01/23 15:03:20;;;;;;;35.53;30.33;;;1.00;67.40;;;;;;5049750;28;20376;-69
2022/01/23 15:05:46;;;;;;;38.58;35.10;;;1.00;67.50;;;;;;5042519;28;20065;-68
2022/01/23 15:08:13;;;;;;;33.58;30.42;;;1.00;67.50;;;;;;5040775;28;20095;-71
2022/01/23 15:10:42;;;;;;;43.90;35.70;;;1.00;67.50;;;;;;5042290;28;20053;-70
2022/01/23 15:13:12;;;;;;;36.28;30.17;;;1.00;67.40;;;;;;5042079;28;20418;-73
2022/01/23 15:15:38;;;;;;;40.05;32.88;;;1.10;67.50;;;;;;5042108;28;20110;-69
2022/01/23 15:18:04;;;;;;;30.13;27.33;;;1.10;67.60;;;;;;5046103;28;20060;-69
2022/01/23 15:20:33;;;;;;;33.40;30.48;;;1.00;67.50;;;;;;5042667;28;20033;-71
2022/01/23 15:22:59;;;;;;;34.75;29.83;;;1.00;67.60;;;;;;5040839;28;20033;-67
2022/01/23 15:25:25;;;;;;;32.30;29.17;;;0.90;67.70;;;;;;5037259;28;20039;-70
2022/01/23 15:27:52;;;;;;;36.67;29.10;;;0.90;67.70;;;;;;5037456;28;20108;-69
2022/01/23 15:30:20;;;;;;;34.92;30.38;;;0.90;67.60;;;;;;5032496;28;20067;-69
2022/01/23 15:32:46;;;;;;;33.00;28.98;;;0.90;67.70;;;;;;5038512;28;20079;-68
2022/01/23 15:35:13;;;;;;;32.47;29.23;;;0.90;67.80;;;;;;5039188;28;20033;-69
2022/01/23 15:37:40;;;;;;;35.42;31.95;;;0.90;67.90;;;;;;5050792;28;20017;-66
2022/01/23 15:40:10;;;;;;;32.65;27.15;;;0.90;67.90;;;;;;5056345;28;20021;-68
2022/01/23 15:42:36;;;;;;;29.67;26.60;;;0.90;67.90;;;;;;5054930;28;20032;-72
2022/01/23 15:45:03;;;;;;;34.88;31.05;;;0.80;67.90;;;;;;5056228;28;20080;-69
2022/01/23 15:47:29;;;;;;;30.98;27.85;;;0.80;67.90;;;;;;5056447;28;20379;-67
2022/01/23 15:49:55;;;;;;;40.95;36.28;;;0.80;68.60;;;;;;5035413;28;20030;-70
2022/01/23 15:52:21;;;;;;;42.05;37.53;;;0.90;68.00;;;;;;5035746;28;20030;-70
2022/01/23 15:54:47;;;;;;;31.65;29.20;;;0.90;68.00;;;;;;5036233;28;20025;-73
2022/01/23 15:57:13;;;;;;;33.92;28.08;;;0.90;68.00;;;;;;5034889;28;20029;-74
2022/01/23 15:59:39;;;;;;;34.35;31.02;;;0.80;68.00;;;;;;5036540;28;20151;-75
2022/01/23 16:02:07;;;;;;;31.52;29.13;;;0.80;68.10;;;;;;5036958;28;20050;-78
2022/01/23 16:04:37;;;;;;;35.40;31.83;;;0.90;68.20;;;;;;5035821;28;20030;-80
2022/01/23 16:07:07;;;;;;;32.50;30.13;;;0.90;68.20;;;;;;5035716;28;20029;-74
2022/01/23 16:09:34;;;;;;;35.33;31.70;;;0.90;68.20;;;;;;5037064;28;20025;-74
2022/01/23 16:12:00;;;;;;;33.72;30.58;;;0.80;68.20;;;;;;5037111;28;20024;-80
2022/01/23 16:14:26;;;;;;;34.35;30.58;;;0.80;68.30;;;;;;5037263;28;20413;-77
2022/01/23 16:16:52;;;;;;;33.67;30.40;;;0.80;68.30;;;;;;5037320;28;20056;-76
2022/01/23 16:19:18;;;;;;;36.88;31.27;;;0.80;68.50;;;;;;5046543;28;20025;-84
2022/01/23 16:21:44;;;;;;;34.00;30.48;;;0.80;68.50;;;;;;5059690;28;20031;-77
2022/01/23 16:24:11;;;;;;;36.38;33.35;;;0.70;68.50;;;;;;5075827;28;20044;-80
2022/01/23 16:26:36;;;;;;;32.58;29.38;;;0.70;68.60;;;;;;5057443;28;20104;-75
2022/01/23 16:29:03;;;;;;;33.63;30.08;;;0.70;68.60;;;;;;5056672;28;20114;-71
2022/01/23 16:31:29;;;;;;;34.65;31.42;;;0.70;68.70;;;;;;5056624;28;20076;-69
2022/01/23 16:33:55;;;;;;;36.65;32.55;;;0.80;68.70;;;;;;5052791;28;20448;-67
2022/01/23 16:36:21;;;;;;;41.10;31.10;;;0.80;68.70;;;;;;5056488;28;20033;-67
2022/01/23 16:38:46;;;;;;;35.05;31.65;;;0.80;68.60;;;;;;5055309;28;20036;-70